createdAt,value
2023-03-21T06:02:31.970Z,11.32
2023-03-21T06:05:03.500Z,11.50
2023-03-21T06:07:30.917Z,11.70
2023-03-21T06:09:57.771Z,10.80
2023-03-21T06:12:25.231Z,12.23
2023-03-21T06:15:09.294Z,12.32
2023-03-21T06:17:51.308Z,12.82
2023-03-21T06:20:18.223Z,11.27
2023-03-21T06:22:51.144Z,12.75
2023-03-21T06:25:18.732Z,11.02
2023-03-21T06:27:46.094Z,11.68
2023-03-21T06:30:13.308Z,13.30
2023-03-21T06:32:51.941Z,12.43
2023-03-21T06:35:18.969Z,12.15
2023-03-21T06:37:49.535Z,13.60
2023-03-21T06:40:20.404Z,11.88
2023-03-21T06:51:34.185Z,13.27
2023-03-21T06:54:17.783Z,14.27
2023-03-21T06:56:58.787Z,12.05
2023-03-21T06:59:29.317Z,12.95
2023-03-21T07:02:18.588Z,13.40
2023-03-21T07:04:51.179Z,13.43
2023-03-21T07:07:26.340Z,12.35
2023-03-21T07:09:53.000Z,14.13
2023-03-21T07:12:20.460Z,12.32
2023-03-21T07:15:09.330Z,12.43
2023-03-21T07:17:37.254Z,12.55
2023-03-21T07:20:08.238Z,12.35
2023-03-21T07:22:36.287Z,14.18
2023-03-21T07:25:05.413Z,13.73
2023-03-21T07:27:40.766Z,13.45
2023-03-21T07:30:09.425Z,12.48
2023-03-21T07:32:37.869Z,11.85
2023-03-21T07:35:09.908Z,12.00
2023-03-21T07:37:38.224Z,13.15
2023-03-21T07:40:10.500Z,12.95
2023-03-21T07:42:40.713Z,12.93
2023-03-21T07:45:16.644Z,12.27
2023-03-21T07:47:47.820Z,12.60
2023-03-21T07:50:15.929Z,12.90
2023-03-21T07:52:43.914Z,12.68
2023-03-21T07:55:21.172Z,11.80
2023-03-21T07:57:51.558Z,12.35
2023-03-21T08:00:25.116Z,12.02
2023-03-21T08:02:58.739Z,12.32
2023-03-21T08:05:36.935Z,12.20
2023-03-21T08:08:17.295Z,14.32
2023-03-21T08:10:44.895Z,10.98
2023-03-21T08:13:11.944Z,10.90
2023-03-21T08:15:42.274Z,11.10
2023-03-21T08:18:10.890Z,11.27
2023-03-21T08:20:38.377Z,12.77
2023-03-21T08:23:06.654Z,11.18
2023-03-21T08:25:37.724Z,11.00
2023-03-21T08:28:04.711Z,11.18
2023-03-21T08:30:32.241Z,11.45
2023-03-21T08:33:02.202Z,10.77
2023-03-21T08:35:31.971Z,9.45
2023-03-21T08:38:06.924Z,10.55
2023-03-21T08:40:34.503Z,11.00
2023-03-21T08:43:01.099Z,10.27
2023-03-21T08:45:28.339Z,10.05
2023-03-21T08:47:56.102Z,10.60
2023-03-21T08:50:26.674Z,11.85
2023-03-21T08:52:53.289Z,10.43
2023-03-21T08:55:20.751Z,11.95
2023-03-21T08:57:47.508Z,11.70
2023-03-21T09:00:18.149Z,11.85
2023-03-21T09:02:46.726Z,11.57
2023-03-21T09:05:14.669Z,12.38
2023-03-21T09:07:41.733Z,11.52
2023-03-21T09:10:21.505Z,10.82
2023-03-21T09:12:54.406Z,12.23
2023-03-21T09:15:25.168Z,12.10
2023-03-21T09:17:57.153Z,11.38
2023-03-21T09:20:33.221Z,11.07
2023-03-21T09:23:01.627Z,12.18
2023-03-21T09:25:31.941Z,13.30
2023-03-21T09:28:00.242Z,13.90
2023-03-21T09:30:27.951Z,12.43
2023-03-21T09:32:55.682Z,13.38
2023-03-21T09:35:24.534Z,13.07
2023-03-21T09:37:51.296Z,13.40
2023-03-21T09:40:45.070Z,12.32
2023-03-21T09:43:49.659Z,13.20
2023-03-21T09:46:25.957Z,13.07
2023-03-21T09:49:00.131Z,13.38
2023-03-21T09:51:33.452Z,12.88
2023-03-21T09:54:06.972Z,12.30
2023-03-21T09:56:36.644Z,12.90
2023-03-21T09:59:08.942Z,11.80
2023-03-21T10:01:45.511Z,11.57
2023-03-21T10:04:19.264Z,12.40
2023-03-21T10:07:01.896Z,11.98
2023-03-21T10:09:32.733Z,13.23
2023-03-21T10:12:07.320Z,12.88
2023-03-21T10:14:58.187Z,12.65
2023-03-21T10:17:43.149Z,13.20
2023-03-21T10:20:23.093Z,13.25
2023-03-21T10:25:32.089Z,11.98
2023-03-21T10:28:00.806Z,13.15
2023-03-21T10:30:35.261Z,11.82
2023-03-21T10:33:05.390Z,13.15
2023-03-21T10:35:37.504Z,12.45
2023-03-21T10:38:06.211Z,11.65
2023-03-21T10:40:34.999Z,11.25
2023-03-21T10:43:27.146Z,12.95
2023-03-21T10:45:57.954Z,12.25
2023-03-21T10:48:24.969Z,12.60
2023-03-21T10:50:56.672Z,12.02
2023-03-21T10:53:32.114Z,13.38
2023-03-21T10:56:01.734Z,13.25
2023-03-21T10:58:38.963Z,11.48
2023-03-21T11:01:10.998Z,11.27
2023-03-21T11:03:43.436Z,12.50
2023-03-21T11:06:13.550Z,12.00
2023-03-21T11:11:15.713Z,10.98
2023-03-21T11:13:44.224Z,11.63
2023-03-21T11:16:19.583Z,11.07
2023-03-21T11:18:51.479Z,11.07
2023-03-21T11:21:20.347Z,11.00
2023-03-21T11:23:50.448Z,11.65
2023-03-21T11:26:32.578Z,10.43
2023-03-21T11:28:59.700Z,10.50
2023-03-21T11:31:40.933Z,11.82
2023-03-21T11:34:09.688Z,12.45
2023-03-21T11:36:41.788Z,10.82
2023-03-21T11:39:11.889Z,12.32
2023-03-21T11:41:41.168Z,11.98
2023-03-21T11:44:27.953Z,11.75
2023-03-21T11:46:55.207Z,12.73
2023-03-21T11:49:23.820Z,12.48
2023-03-21T11:52:13.668Z,12.45
2023-03-21T11:55:11.822Z,11.10
2023-03-21T11:57:38.849Z,10.15
2023-03-21T12:03:21.196Z,10.73
2023-03-21T12:06:01.498Z,10.52
2023-03-21T12:09:05.822Z,10.68
2023-03-21T12:11:55.168Z,9.77
2023-03-21T12:15:00.269Z,10.02
2023-03-21T12:17:43.302Z,9.70
2023-03-21T12:20:52.411Z,9.82
2023-03-21T12:23:34.586Z,10.38
2023-03-21T12:26:19.911Z,8.75
2023-03-21T12:29:04.939Z,9.88
2023-03-21T12:31:49.965Z,8.82
2023-03-21T12:34:50.216Z,8.35
2023-03-21T12:37:38.532Z,8.80
2023-03-21T12:40:30.725Z,8.85
2023-03-21T12:43:23.642Z,8.93
2023-03-21T12:45:56.202Z,8.23
2023-03-21T12:48:50.696Z,7.88
2023-03-21T12:51:21.468Z,8.18
2023-03-21T12:54:13.188Z,7.50
2023-03-21T12:56:55.703Z,8.07
2023-03-21T12:59:28.582Z,8.05
2023-03-21T13:02:01.698Z,7.15
2023-03-21T13:04:44.388Z,7.32
2023-03-21T13:07:17.638Z,8.23
2023-03-21T13:09:45.045Z,7.28
2023-03-21T13:12:44.241Z,7.38
2023-03-21T13:15:24.548Z,7.53
2023-03-21T13:18:16.453Z,7.70
2023-03-21T13:20:46.640Z,7.05
2023-03-21T13:23:13.788Z,8.27
2023-03-21T13:25:49.978Z,7.97
2023-03-21T13:28:28.756Z,7.80
2023-03-21T13:31:17.496Z,8.20
2023-03-21T13:33:58.736Z,7.65
2023-03-21T13:36:29.469Z,7.70
2023-03-21T13:39:02.947Z,7.97
2023-03-21T13:41:39.168Z,7.80
2023-03-21T13:44:09.854Z,6.95
2023-03-21T13:46:53.338Z,6.82
2023-03-21T13:49:32.702Z,6.60
2023-03-21T13:52:03.297Z,6.38
2023-03-21T13:54:43.484Z,6.22
2023-03-21T13:57:23.882Z,6.53
2023-03-21T14:00:24.413Z,7.18
2023-03-21T14:03:07.973Z,5.78
2023-03-21T14:05:37.908Z,5.97
2023-03-21T14:08:15.664Z,5.93
2023-03-21T14:10:52.754Z,6.13
2023-03-21T14:13:26.294Z,6.28
2023-03-21T14:16:04.615Z,5.95
2023-03-21T14:18:53.560Z,6.35
2023-03-21T14:21:28.528Z,6.22
2023-03-21T14:24:03.947Z,8.70
2023-03-21T14:26:45.582Z,5.72
2023-03-21T14:29:27.340Z,6.13
2023-03-21T14:32:01.002Z,6.35
2023-03-21T14:34:34.775Z,6.20
2023-03-21T14:37:07.596Z,6.70
2023-03-21T14:39:42.431Z,5.50
2023-03-21T14:42:13.907Z,6.80
2023-03-21T14:44:56.381Z,5.65
2023-03-21T14:47:28.860Z,6.70
2023-03-21T14:49:58.225Z,5.90
2023-03-21T14:52:30.040Z,5.45
2023-03-21T14:54:58.178Z,5.63
2023-03-21T14:57:29.104Z,4.63
2023-03-21T15:00:00.528Z,4.00
2023-03-21T15:02:38.925Z,4.70
2023-03-21T15:05:29.419Z,4.45
2023-03-21T15:08:21.242Z,4.80
2023-03-21T15:11:07.304Z,3.80
2023-03-21T15:13:54.729Z,5.03
2023-03-21T15:16:22.727Z,5.07
2023-03-21T15:18:50.422Z,4.78
2023-03-21T15:21:26.824Z,4.18
2023-03-21T15:23:58.571Z,4.43
2023-03-21T15:26:26.795Z,3.95
2023-03-21T15:29:01.743Z,3.67
2023-03-21T15:31:34.615Z,4.10
2023-03-21T15:34:01.786Z,4.75
2023-03-21T15:36:34.765Z,4.18
2023-03-21T15:39:05.935Z,3.80
2023-03-21T15:41:33.828Z,4.47
2023-03-21T15:44:02.605Z,3.65
2023-03-21T15:46:43.885Z,3.35
2023-03-21T15:49:13.866Z,3.72
2023-03-21T15:51:43.792Z,2.72
2023-03-21T15:56:52.176Z,3.17
2023-03-21T15:59:19.685Z,2.72
2023-03-21T16:01:51.524Z,2.70
2023-03-21T16:04:18.894Z,2.45
2023-03-21T16:06:57.299Z,2.50
2023-03-21T16:09:25.557Z,3.13
2023-03-21T16:11:59.662Z,2.63
2023-03-21T16:14:30.514Z,2.47
2023-03-21T16:16:59.645Z,2.53
2023-03-21T16:19:29.583Z,2.35
2023-03-21T16:22:00.497Z,2.58
2023-03-21T16:24:27.156Z,3.50
2023-03-21T16:26:55.461Z,3.15
2023-03-21T16:29:23.862Z,3.13
2023-03-21T16:31:53.982Z,3.30
2023-03-21T16:34:20.630Z,9.80
2023-03-21T16:36:48.233Z,3.38
2023-03-21T16:39:22.385Z,2.90
2023-03-21T16:41:51.714Z,2.90
2023-03-21T16:44:19.190Z,2.90
2023-03-21T16:46:52.876Z,3.08
2023-03-21T16:49:24.809Z,3.00
2023-03-21T16:51:53.346Z,3.00
2023-03-21T16:54:21.037Z,3.20
2023-03-21T16:56:51.676Z,3.58
2023-03-21T16:59:18.472Z,3.38
2023-03-21T17:01:48.987Z,3.15
2023-03-21T17:04:17.713Z,3.58
2023-03-21T17:06:51.413Z,2.80
2023-03-21T17:09:23.796Z,3.90
2023-03-21T17:11:51.239Z,3.08
2023-03-21T17:14:18.597Z,3.53
2023-03-21T17:16:46.376Z,2.70
2023-03-21T17:19:21.929Z,3.35
2023-03-21T17:21:49.298Z,2.83
2023-03-21T17:24:16.764Z,3.03
2023-03-21T17:26:44.937Z,2.80
2023-03-21T17:29:15.329Z,2.95
2023-03-21T17:31:44.172Z,2.58
2023-03-21T17:34:11.083Z,3.03
2023-03-21T17:36:41.689Z,2.83
2023-03-21T17:39:15.478Z,3.33
2023-03-21T17:41:42.672Z,3.20
2023-03-21T17:44:09.408Z,3.20
2023-03-21T17:46:37.887Z,3.15
2023-03-21T17:49:05.992Z,3.10
2023-03-21T17:51:33.642Z,3.15
2023-03-21T17:54:00.621Z,3.17
2023-03-21T17:56:31.267Z,3.65
2023-03-21T17:58:59.955Z,2.92
2023-03-21T18:01:28.080Z,2.90
2023-03-21T18:03:54.966Z,3.20
2023-03-21T18:06:24.451Z,3.75
2023-03-21T18:08:53.678Z,3.85
2023-03-21T18:11:22.524Z,3.60
2023-03-21T18:13:49.082Z,3.60
2023-03-21T18:16:22.699Z,3.50
2023-03-21T18:18:50.844Z,4.00
2023-03-21T18:21:20.230Z,3.92
2023-03-21T18:23:47.793Z,4.22
2023-03-21T18:26:18.467Z,3.90
2023-03-21T18:28:46.763Z,3.83
2023-03-21T18:31:20.657Z,4.03
2023-03-21T18:33:48.678Z,4.47
2023-03-21T18:36:24.985Z,4.03
2023-03-21T18:38:52.050Z,5.28
2023-03-21T18:41:20.012Z,5.20
2023-03-21T18:44:05.410Z,3.97
2023-03-21T18:46:34.154Z,4.53
2023-03-21T18:49:20.005Z,3.70
2023-03-21T18:51:48.272Z,3.65
2023-03-21T18:54:14.925Z,4.47
2023-03-21T18:59:34.527Z,4.32
2023-03-21T19:02:06.133Z,3.70
2023-03-21T19:04:33.758Z,4.15
2023-03-21T19:07:00.709Z,4.55
2023-03-21T19:09:31.591Z,5.32
2023-03-21T19:11:59.537Z,5.05
2023-03-21T19:14:26.454Z,5.22
2023-03-21T19:17:41.378Z,4.80
2023-03-21T19:19:43.656Z,4.40
2023-03-21T19:22:11.705Z,4.90
2023-03-21T19:24:39.591Z,4.63
2023-03-21T19:27:07.865Z,5.30
2023-03-21T19:29:34.502Z,6.38
2023-03-21T19:32:01.832Z,5.50
2023-03-21T19:34:29.408Z,4.28
2023-03-21T19:36:57.679Z,4.20
2023-03-21T19:39:25.046Z,4.25
2023-03-21T19:41:55.354Z,5.32
2023-03-21T19:44:30.825Z,4.70
2023-03-21T19:46:58.188Z,5.43
2023-03-21T19:49:37.050Z,4.57
2023-03-21T19:52:13.731Z,4.78
2023-03-21T19:54:40.446Z,4.35
2023-03-21T19:57:09.905Z,4.80
2023-03-21T19:59:36.508Z,4.82
2023-03-21T20:02:24.971Z,4.70
2023-03-21T20:04:51.677Z,4.80
2023-03-21T20:07:18.912Z,4.95
2023-03-21T20:09:52.589Z,4.80
2023-03-21T20:12:22.248Z,5.43
2023-03-21T20:14:49.247Z,5.07
2023-03-21T20:17:17.148Z,5.13
2023-03-21T20:19:43.797Z,4.57
2023-03-21T20:22:21.849Z,4.80
2023-03-21T20:24:55.120Z,5.18
2023-03-21T20:27:25.540Z,5.15
2023-03-21T20:30:09.826Z,5.20
2023-03-21T20:32:43.134Z,4.93
2023-03-21T20:35:20.651Z,6.60
2023-03-21T20:37:52.855Z,6.50
2023-03-21T20:40:21.403Z,6.22
2023-03-21T20:42:49.133Z,5.88
2023-03-21T20:45:17.314Z,6.30
2023-03-21T20:47:44.821Z,5.65
2023-03-21T20:50:13.942Z,5.97
2023-03-21T20:53:01.282Z,6.25
2023-03-21T20:55:34.195Z,6.15
2023-03-21T20:58:02.418Z,5.97
2023-03-21T21:00:29.485Z,5.78
2023-03-21T21:02:58.048Z,6.75
2023-03-21T21:05:30.633Z,6.78
2023-03-21T21:08:02.154Z,6.32
2023-03-21T21:10:29.593Z,5.50
2023-03-21T21:12:57.146Z,6.45
2023-03-21T21:15:23.787Z,6.80
2023-03-21T21:18:08.703Z,6.65
2023-03-21T21:20:37.964Z,6.80
2023-03-21T21:23:05.572Z,7.78
2023-03-21T21:25:33.680Z,7.07
2023-03-21T21:28:02.238Z,7.05
